createdAt,value
2023-08-09T00:00:33.612Z,1.90
2023-08-09T00:03:01.967Z,1.90
2023-08-09T00:05:29.216Z,2.00
2023-08-09T00:07:56.457Z,1.90
2023-08-09T00:10:23.477Z,2.40
2023-08-09T00:12:51.605Z,2.50
2023-08-09T00:15:19.807Z,2.00
2023-08-09T00:17:46.780Z,1.90
2023-08-09T00:20:13.930Z,2.10
2023-08-09T00:22:42.559Z,2.10
2023-08-09T00:25:12.350Z,2.00
2023-08-09T00:27:39.773Z,2.10
2023-08-09T00:30:09.767Z,2.00
2023-08-09T00:32:38.906Z,1.90
2023-08-09T00:35:06.756Z,2.20
2023-08-09T00:37:34.338Z,2.20
2023-08-09T00:40:01.487Z,2.10
2023-08-09T00:42:28.458Z,2.30
2023-08-09T00:44:55.407Z,1.80
2023-08-09T00:47:22.372Z,2.20
2023-08-09T00:49:49.524Z,2.20
2023-08-09T00:52:21.174Z,2.10
2023-08-09T00:54:49.738Z,2.30
2023-08-09T00:57:17.263Z,2.30
2023-08-09T00:59:44.601Z,2.10
2023-08-09T01:02:11.650Z,2.10
2023-08-09T01:04:42.678Z,2.10
2023-08-09T01:07:27.596Z,2.10
2023-08-09T01:10:08.891Z,2.10
2023-08-09T01:12:40.535Z,2.50
2023-08-09T01:15:10.016Z,2.20
2023-08-09T01:17:38.376Z,2.20
2023-08-09T01:20:08.835Z,2.10
2023-08-09T01:22:37.502Z,2.10
2023-08-09T01:25:08.248Z,2.10
2023-08-09T01:27:37.060Z,2.00
2023-08-09T01:30:07.717Z,2.30
2023-08-09T01:32:35.253Z,2.20
2023-08-09T01:35:02.942Z,2.30
2023-08-09T01:37:42.431Z,2.20
2023-08-09T01:40:12.997Z,2.20
2023-08-09T01:42:41.594Z,1.90
2023-08-09T01:45:11.666Z,2.20
2023-08-09T01:47:39.935Z,2.20
2023-08-09T01:50:08.309Z,2.10
2023-08-09T01:52:35.283Z,2.10
2023-08-09T01:55:02.394Z,2.10
2023-08-09T01:57:29.307Z,2.40
2023-08-09T01:59:56.261Z,2.30
2023-08-09T02:02:23.209Z,2.10
2023-08-09T02:04:50.172Z,2.40
2023-08-09T02:07:17.099Z,2.40
2023-08-09T02:09:44.015Z,2.10
2023-08-09T02:12:11.733Z,2.00
2023-08-09T02:14:38.766Z,2.20
2023-08-09T02:17:07.407Z,2.50
2023-08-09T02:19:34.318Z,2.30
2023-08-09T02:22:01.295Z,2.20
2023-08-09T02:24:28.387Z,2.30
2023-08-09T02:26:55.360Z,2.30
2023-08-09T02:29:22.306Z,2.10
2023-08-09T02:31:49.216Z,2.20
2023-08-09T02:34:20.570Z,2.50
2023-08-09T02:36:48.002Z,2.40
2023-08-09T02:39:14.954Z,2.60
2023-08-09T02:41:43.887Z,2.50
2023-08-09T02:44:11.085Z,2.10
2023-08-09T02:46:38.078Z,2.30
2023-08-09T02:49:05.929Z,2.50
2023-08-09T02:51:33.904Z,2.40
2023-08-09T02:54:06.466Z,2.20
2023-08-09T02:56:34.949Z,2.40
2023-08-09T02:59:02.129Z,2.40
2023-08-09T03:01:30.762Z,2.60
2023-08-09T03:03:58.084Z,2.50
2023-08-09T03:06:26.043Z,2.20
2023-08-09T03:08:54.243Z,2.30
2023-08-09T03:11:25.694Z,2.30
2023-08-09T03:13:53.387Z,2.30
2023-08-09T03:16:22.082Z,2.20
2023-08-09T03:18:49.137Z,2.30
2023-08-09T03:21:16.206Z,2.20
2023-08-09T03:23:43.255Z,2.30
2023-08-09T03:26:10.305Z,2.30
2023-08-09T03:28:38.574Z,2.50
2023-08-09T03:31:05.546Z,2.00
2023-08-09T03:33:32.426Z,2.30
2023-08-09T03:35:59.352Z,2.10
2023-08-09T03:38:26.302Z,2.10
2023-08-09T03:40:53.332Z,2.30
2023-08-09T03:43:20.261Z,2.80
2023-08-09T03:45:47.307Z,2.70
2023-08-09T03:48:14.346Z,3.10
2023-08-09T03:50:41.368Z,3.20
2023-08-09T03:53:08.327Z,2.90
2023-08-09T03:55:35.278Z,2.90
2023-08-09T03:58:02.298Z,2.50
2023-08-09T04:00:29.297Z,2.40
2023-08-09T04:02:56.381Z,2.10
2023-08-09T04:05:24.088Z,2.60
2023-08-09T04:07:51.185Z,2.30
2023-08-09T04:10:18.473Z,2.60
2023-08-09T04:12:45.755Z,2.30
2023-08-09T04:15:12.973Z,2.50
2023-08-09T04:17:40.558Z,2.50
2023-08-09T04:20:11.124Z,2.40
2023-08-09T04:22:38.104Z,2.30
2023-08-09T04:25:06.274Z,2.30
2023-08-09T04:27:34.700Z,2.30
2023-08-09T04:30:06.127Z,2.30
2023-08-09T04:32:33.737Z,2.30
2023-08-09T04:35:00.680Z,2.40
2023-08-09T04:37:28.579Z,2.60
2023-08-09T04:39:55.560Z,2.70
2023-08-09T04:42:22.956Z,2.60
2023-08-09T04:44:50.329Z,2.50
2023-08-09T04:47:17.391Z,2.50
2023-08-09T04:49:44.326Z,2.40
2023-08-09T04:52:11.266Z,2.60
2023-08-09T04:54:38.181Z,2.50
2023-08-09T04:57:05.600Z,2.50
2023-08-09T04:59:32.837Z,2.60
2023-08-09T05:02:00.201Z,2.40
2023-08-09T05:04:27.490Z,2.40
2023-08-09T05:06:54.626Z,2.50
2023-08-09T05:09:21.636Z,2.50
2023-08-09T05:11:48.562Z,2.20
2023-08-09T05:14:15.656Z,2.40
2023-08-09T05:16:43.054Z,2.60
2023-08-09T05:19:10.079Z,2.20
2023-08-09T05:21:37.033Z,2.10
2023-08-09T05:24:04.546Z,2.30
2023-08-09T05:26:31.452Z,2.30
2023-08-09T05:28:58.414Z,2.40
2023-08-09T05:31:25.317Z,2.30
2023-08-09T05:33:52.311Z,2.10
2023-08-09T05:36:19.290Z,2.10
2023-08-09T05:38:46.262Z,2.20
2023-08-09T05:41:13.936Z,2.10
2023-08-09T05:43:41.012Z,2.40
2023-08-09T05:46:08.122Z,2.00
2023-08-09T05:48:35.389Z,2.00
2023-08-09T05:51:02.477Z,1.70
2023-08-09T05:53:29.534Z,2.20
2023-08-09T05:55:56.487Z,2.00
2023-08-09T05:58:23.503Z,1.80
2023-08-09T06:00:50.637Z,1.90
2023-08-09T06:03:17.983Z,2.00
2023-08-09T06:05:45.091Z,2.10
2023-08-09T06:08:12.160Z,1.90
2023-08-09T06:10:39.174Z,1.70
2023-08-09T06:13:06.645Z,1.90
2023-08-09T06:15:33.603Z,2.10
2023-08-09T06:18:00.718Z,2.30
2023-08-09T06:20:29.325Z,2.00
2023-08-09T06:22:56.379Z,2.00
2023-08-09T06:25:23.555Z,1.70
2023-08-09T06:27:51.835Z,2.40
2023-08-09T06:30:18.816Z,1.90
2023-08-09T06:32:46.025Z,1.90
2023-08-09T06:35:13.113Z,2.00
2023-08-09T06:37:40.135Z,2.10
2023-08-09T06:40:08.795Z,2.10
2023-08-09T06:42:35.824Z,2.10
2023-08-09T06:45:07.020Z,1.90
2023-08-09T06:47:34.396Z,2.00
2023-08-09T06:50:02.246Z,1.90
2023-08-09T06:52:29.304Z,2.40
2023-08-09T06:54:57.559Z,1.90
2023-08-09T06:57:26.138Z,2.30
2023-08-09T06:59:53.709Z,2.30
2023-08-09T07:02:22.043Z,2.20
2023-08-09T07:04:54.151Z,2.20
2023-08-09T07:07:23.339Z,2.00
2023-08-09T07:09:50.661Z,2.00
2023-08-09T07:12:17.776Z,2.10
2023-08-09T07:14:44.798Z,1.70
2023-08-09T07:17:11.759Z,1.70
2023-08-09T07:19:38.856Z,2.00
2023-08-09T07:22:06.157Z,1.70
2023-08-09T07:24:33.391Z,1.80
2023-08-09T07:27:00.705Z,1.80
2023-08-09T07:29:27.473Z,1.90
2023-08-09T07:31:54.830Z,2.10
2023-08-09T07:34:22.304Z,2.00
2023-08-09T07:36:49.396Z,1.70
2023-08-09T07:39:16.443Z,2.10
2023-08-09T07:41:43.159Z,1.90
2023-08-09T07:44:09.927Z,1.90
2023-08-09T07:46:37.088Z,1.60
2023-08-09T07:49:04.461Z,1.90
2023-08-09T07:51:31.469Z,1.80
2023-08-09T07:53:59.259Z,1.90
2023-08-09T07:56:26.498Z,2.10
2023-08-09T07:58:55.185Z,1.90
2023-08-09T08:01:22.516Z,2.00
2023-08-09T08:03:50.083Z,1.90
2023-08-09T08:06:19.098Z,1.90
2023-08-09T08:08:46.910Z,1.90
2023-08-09T08:11:13.942Z,2.00
2023-08-09T08:13:40.961Z,1.90
2023-08-09T08:16:08.053Z,1.90
2023-08-09T08:18:35.183Z,2.00
2023-08-09T08:21:03.219Z,2.10
2023-08-09T08:23:31.897Z,2.00
2023-08-09T08:25:59.442Z,2.50
2023-08-09T08:28:26.752Z,2.90
2023-08-09T08:30:53.863Z,2.10
2023-08-09T08:33:21.345Z,1.90
2023-08-09T08:35:55.651Z,2.00
2023-08-09T08:38:31.282Z,2.00
2023-08-09T08:40:58.321Z,1.90
2023-08-09T08:43:25.397Z,2.00
2023-08-09T08:45:54.518Z,2.00
2023-08-09T08:48:21.614Z,1.90
2023-08-09T08:50:50.000Z,2.20
2023-08-09T08:53:17.689Z,2.10
2023-08-09T08:55:44.690Z,2.10
2023-08-09T08:58:14.112Z,2.10
2023-08-09T09:00:40.992Z,2.00
2023-08-09T09:03:08.080Z,1.90
2023-08-09T09:05:35.715Z,1.90
2023-08-09T09:08:04.369Z,1.90
2023-08-09T09:10:31.468Z,2.30
2023-08-09T09:12:58.287Z,2.20
2023-08-09T09:15:26.662Z,2.00
2023-08-09T09:17:54.692Z,2.00
2023-08-09T09:20:31.371Z,2.00
2023-08-09T09:22:58.775Z,2.00
2023-08-09T09:25:25.930Z,2.10
2023-08-09T09:27:57.871Z,1.90
2023-08-09T09:30:26.570Z,1.70
2023-08-09T09:32:53.565Z,1.90
2023-08-09T09:35:21.898Z,1.80
2023-08-09T09:37:49.540Z,1.80
2023-08-09T09:40:27.911Z,2.00
2023-08-09T09:42:56.026Z,1.90
2023-08-09T09:45:25.234Z,2.10
2023-08-09T09:47:54.001Z,1.80
2023-08-09T09:50:24.109Z,1.70
2023-08-09T09:52:52.598Z,1.80
2023-08-09T09:55:22.005Z,1.70
2023-08-09T09:57:49.085Z,1.80
2023-08-09T10:00:16.547Z,1.90
2023-08-09T10:02:43.313Z,1.90
2023-08-09T10:05:13.742Z,1.80
2023-08-09T10:07:44.908Z,1.60
2023-08-09T10:10:14.413Z,2.20
2023-08-09T10:12:56.124Z,2.60
2023-08-09T10:15:30.526Z,2.20
2023-08-09T10:18:04.679Z,2.10
2023-08-09T10:20:33.772Z,2.00
2023-08-09T10:23:02.197Z,2.00
2023-08-09T10:25:46.129Z,2.00
2023-08-09T10:28:13.022Z,1.90
2023-08-09T10:30:53.432Z,2.60
2023-08-09T10:33:20.852Z,2.40
2023-08-09T10:35:52.412Z,2.40
2023-08-09T10:38:48.991Z,2.40
2023-08-09T10:41:16.434Z,2.10
2023-08-09T10:43:43.525Z,1.90
2023-08-09T10:46:27.933Z,1.90
2023-08-09T10:48:59.890Z,1.90
2023-08-09T10:51:27.260Z,1.80
2023-08-09T10:54:07.889Z,1.90
2023-08-09T10:56:47.928Z,1.90
2023-08-09T10:59:23.015Z,2.00
2023-08-09T11:01:52.012Z,1.80
2023-08-09T11:06:49.201Z,1.90
2023-08-09T11:09:22.511Z,1.70
2023-08-09T11:11:52.076Z,2.00
2023-08-09T11:14:22.132Z,1.80
2023-08-09T11:16:50.518Z,1.60
2023-08-09T11:19:34.070Z,1.80
2023-08-09T11:22:03.400Z,1.80
2023-08-09T11:24:31.306Z,1.70
2023-08-09T11:27:00.650Z,1.70
2023-08-09T11:31:59.471Z,1.60
2023-08-09T11:34:27.502Z,1.50
2023-08-09T11:36:57.489Z,1.90
2023-08-09T11:39:26.861Z,1.70
2023-08-09T11:41:56.601Z,1.80
2023-08-09T11:44:28.688Z,1.80
2023-08-09T11:46:56.934Z,2.00
2023-08-09T11:49:27.988Z,1.90
2023-08-09T11:51:56.043Z,2.00
2023-08-09T11:54:23.478Z,2.00
2023-08-09T11:56:52.496Z,2.10
2023-08-09T11:59:21.445Z,1.90
2023-08-09T12:01:55.213Z,1.90
2023-08-09T12:04:24.327Z,2.30
2023-08-09T12:09:39.044Z,2.10
2023-08-09T12:12:20.097Z,2.20
2023-08-09T12:14:49.838Z,2.30
2023-08-09T12:17:22.692Z,2.20
2023-08-09T12:19:51.932Z,2.30
2023-08-09T12:22:18.979Z,2.20
2023-08-09T12:24:45.975Z,2.20
2023-08-09T12:27:13.161Z,2.10
2023-08-09T12:29:40.338Z,2.30
2023-08-09T12:32:07.448Z,2.20
2023-08-09T12:34:34.988Z,2.50
2023-08-09T12:37:02.169Z,2.40
2023-08-09T12:39:29.169Z,2.00
2023-08-09T12:41:56.922Z,2.30
2023-08-09T12:44:25.211Z,2.20
2023-08-09T12:46:52.473Z,2.50
2023-08-09T12:49:19.606Z,2.40
2023-08-09T12:51:46.856Z,2.40
2023-08-09T12:54:13.961Z,2.10
2023-08-09T12:56:41.046Z,2.10
2023-08-09T12:59:08.140Z,2.00
2023-08-09T13:01:36.248Z,2.50
2023-08-09T13:04:04.830Z,2.00
2023-08-09T13:06:31.814Z,2.40
2023-08-09T13:09:01.484Z,2.00
2023-08-09T13:11:28.757Z,2.10
2023-08-09T13:13:55.873Z,2.20
2023-08-09T13:16:23.033Z,2.30
2023-08-09T13:18:50.116Z,2.00
2023-08-09T13:21:18.835Z,2.50
2023-08-09T13:23:46.584Z,1.90
2023-08-09T13:26:14.267Z,2.10
2023-08-09T13:28:43.301Z,2.10
2023-08-09T13:31:10.113Z,2.50
2023-08-09T13:33:40.010Z,2.10
2023-08-09T13:36:07.837Z,2.00
2023-08-09T13:38:40.841Z,2.10
2023-08-09T13:41:08.728Z,1.80
2023-08-09T13:43:36.354Z,2.00
2023-08-09T13:46:05.142Z,1.70
2023-08-09T13:48:32.565Z,2.10
2023-08-09T13:50:59.302Z,1.80
2023-08-09T13:53:26.086Z,1.90
2023-08-09T13:55:53.166Z,1.50
2023-08-09T13:58:20.504Z,1.90
2023-08-09T14:00:50.394Z,1.80
2023-08-09T14:03:18.077Z,1.80
2023-08-09T14:05:45.133Z,1.70
2023-08-09T14:08:12.363Z,2.20
2023-08-09T14:10:42.404Z,2.00
2023-08-09T14:13:09.458Z,1.80
2023-08-09T14:15:37.067Z,2.00
2023-08-09T14:18:07.012Z,2.20
2023-08-09T14:20:36.607Z,1.90
2023-08-09T14:23:04.270Z,2.10
2023-08-09T14:25:31.181Z,2.00
2023-08-09T14:27:58.201Z,2.30
2023-08-09T14:30:25.207Z,1.90
2023-08-09T14:32:52.486Z,2.30
2023-08-09T14:35:21.513Z,2.10
2023-08-09T14:37:48.752Z,2.00
2023-08-09T14:40:15.945Z,1.80
2023-08-09T14:42:43.020Z,1.60
2023-08-09T14:45:12.027Z,2.10
2023-08-09T14:47:40.201Z,1.60
2023-08-09T14:50:08.465Z,1.80
2023-08-09T14:52:35.293Z,2.00
2023-08-09T14:55:02.286Z,1.80
2023-08-09T14:57:29.077Z,1.90
2023-08-09T14:59:56.062Z,1.90
2023-08-09T15:02:22.933Z,2.00
2023-08-09T15:04:50.545Z,2.00
2023-08-09T15:07:17.607Z,2.00
2023-08-09T15:09:45.057Z,1.90
2023-08-09T15:12:14.679Z,2.10
2023-08-09T15:14:44.831Z,2.00
2023-08-09T15:19:42.277Z,2.00
2023-08-09T15:22:09.111Z,2.10
2023-08-09T15:24:35.908Z,2.10
2023-08-09T15:27:02.945Z,2.50
2023-08-09T15:29:29.928Z,2.20
2023-08-09T15:31:56.671Z,2.50
2023-08-09T15:34:23.701Z,2.10
2023-08-09T15:36:51.308Z,2.20
2023-08-09T15:39:18.059Z,2.10
2023-08-09T15:41:44.878Z,2.00
2023-08-09T15:44:12.553Z,1.90
2023-08-09T15:46:40.827Z,1.90
2023-08-09T15:49:08.183Z,2.00
2023-08-09T15:51:35.401Z,2.30
2023-08-09T15:54:02.876Z,2.10
2023-08-09T15:56:29.771Z,2.00
2023-08-09T15:58:56.767Z,1.90
2023-08-09T16:01:23.821Z,1.80
2023-08-09T16:03:50.815Z,1.60
2023-08-09T16:06:17.798Z,2.10
2023-08-09T16:08:45.232Z,1.80
2023-08-09T16:11:12.144Z,1.70
2023-08-09T16:13:39.028Z,1.50
2023-08-09T16:16:11.650Z,1.50
2023-08-09T16:18:44.102Z,1.60
2023-08-09T16:21:11.741Z,1.70
2023-08-09T16:23:38.482Z,1.70
2023-08-09T16:26:05.770Z,1.70
2023-08-09T16:28:32.582Z,1.70
2023-08-09T16:30:59.392Z,1.50
2023-08-09T16:33:26.268Z,1.50
2023-08-09T16:35:53.077Z,1.80
2023-08-09T16:38:19.867Z,1.80
2023-08-09T16:40:46.977Z,1.90
2023-08-09T16:43:13.815Z,1.90
2023-08-09T16:45:40.689Z,1.70
2023-08-09T16:48:07.833Z,1.80
2023-08-09T16:50:35.847Z,1.70
2023-08-09T16:53:02.956Z,1.60
2023-08-09T16:55:30.214Z,1.60
2023-08-09T16:57:57.290Z,1.60
2023-08-09T17:00:24.236Z,1.50
2023-08-09T17:02:51.230Z,1.60
2023-08-09T17:05:22.604Z,1.70
2023-08-09T17:07:49.412Z,1.50
2023-08-09T17:10:16.357Z,1.90
2023-08-09T17:12:43.196Z,1.70
2023-08-09T17:15:10.345Z,1.80
2023-08-09T17:17:37.178Z,1.70
2023-08-09T17:20:05.859Z,1.70
2023-08-09T17:22:32.786Z,2.00
2023-08-09T17:24:59.726Z,1.60
2023-08-09T17:27:26.542Z,1.50
2023-08-09T17:29:53.791Z,1.90
2023-08-09T17:32:21.321Z,1.70
2023-08-09T17:34:48.443Z,1.50
2023-08-09T17:37:15.248Z,1.80
2023-08-09T17:39:43.683Z,1.70
2023-08-09T17:42:10.610Z,2.10
2023-08-09T17:44:38.001Z,1.80
2023-08-09T17:47:05.340Z,1.80
2023-08-09T17:49:32.489Z,1.60
2023-08-09T17:52:01.375Z,1.90
2023-08-09T17:54:28.248Z,1.90
2023-08-09T17:56:54.950Z,1.90
2023-08-09T17:59:21.759Z,1.90
2023-08-09T18:01:48.634Z,1.90
2023-08-09T18:04:15.618Z,1.70
2023-08-09T18:06:42.808Z,1.60
2023-08-09T18:09:10.266Z,2.20
2023-08-09T18:11:38.296Z,2.00
2023-08-09T18:14:05.241Z,2.00
2023-08-09T18:16:32.634Z,1.90
2023-08-09T18:18:59.558Z,2.20
2023-08-09T18:21:29.520Z,2.00
2023-08-09T18:23:57.509Z,2.70
2023-08-09T18:26:25.296Z,2.20
2023-08-09T18:28:53.049Z,2.00
2023-08-09T18:31:23.913Z,2.20
2023-08-09T18:33:51.964Z,2.30
2023-08-09T18:36:19.354Z,2.00
2023-08-09T18:38:46.371Z,2.10
2023-08-09T18:41:13.563Z,2.20
2023-08-09T18:43:42.842Z,2.30
2023-08-09T18:46:09.923Z,2.10
2023-08-09T18:48:36.837Z,2.70
2023-08-09T18:51:05.832Z,2.40
2023-08-09T18:53:32.662Z,2.40
2023-08-09T18:55:59.492Z,2.50
2023-08-09T18:58:26.409Z,2.30
2023-08-09T19:00:53.221Z,2.40
2023-08-09T19:03:20.621Z,2.30
2023-08-09T19:05:47.614Z,2.60
2023-08-09T19:08:14.496Z,2.40
2023-08-09T19:10:41.544Z,2.10
2023-08-09T19:13:08.425Z,2.30
2023-08-09T19:15:37.739Z,2.20
2023-08-09T19:18:06.192Z,1.90
2023-08-09T19:20:33.101Z,2.30
2023-08-09T19:23:01.018Z,2.60
2023-08-09T19:25:30.746Z,2.60
2023-08-09T19:27:59.512Z,2.60
2023-08-09T19:30:28.718Z,3.00
2023-08-09T19:32:55.639Z,3.00
2023-08-09T19:35:22.441Z,2.90
2023-08-09T19:37:49.777Z,2.90
2023-08-09T19:40:16.690Z,2.60
2023-08-09T19:42:43.759Z,2.80
2023-08-09T19:45:10.963Z,2.80
2023-08-09T19:47:37.768Z,2.60
2023-08-09T19:50:05.534Z,2.80
2023-08-09T19:52:32.372Z,2.70
2023-08-09T19:54:59.293Z,2.70
2023-08-09T19:57:26.367Z,2.60
2023-08-09T19:59:53.988Z,2.90
2023-08-09T20:02:20.768Z,2.10
2023-08-09T20:04:47.626Z,2.20
2023-08-09T20:07:17.291Z,2.40
2023-08-09T20:09:44.083Z,2.00
2023-08-09T20:12:10.986Z,2.00
2023-08-09T20:14:37.772Z,2.00
2023-08-09T20:17:05.402Z,1.90
2023-08-09T20:19:32.926Z,1.80
2023-08-09T20:21:59.700Z,1.70
2023-08-09T20:24:41.641Z,1.70
2023-08-09T20:27:10.174Z,1.40
2023-08-09T20:29:37.585Z,1.90
2023-08-09T20:32:06.024Z,1.80
2023-08-09T20:34:33.750Z,1.60
2023-08-09T20:37:01.606Z,1.60
2023-08-09T20:39:28.586Z,1.40
2023-08-09T20:41:55.333Z,1.60
2023-08-09T20:44:22.091Z,1.10
2023-08-09T20:46:49.101Z,0.80
2023-08-09T20:49:16.169Z,1.10
2023-08-09T20:51:43.147Z,1.40
2023-08-09T20:54:10.008Z,1.20
2023-08-09T20:56:36.858Z,1.20
2023-08-09T20:59:04.837Z,1.10
2023-08-09T21:01:32.763Z,0.80
2023-08-09T21:04:00.729Z,1.30
2023-08-09T21:06:28.311Z,1.50
2023-08-09T21:08:55.720Z,1.20
2023-08-09T21:11:22.996Z,1.40
2023-08-09T21:13:50.122Z,1.60
2023-08-09T21:16:16.976Z,1.60
2023-08-09T21:18:45.530Z,1.50
2023-08-09T21:21:14.102Z,1.70
2023-08-09T21:26:11.459Z,1.70
2023-08-09T21:28:46.743Z,1.70
2023-08-09T21:31:15.904Z,1.70
2023-08-09T21:33:42.733Z,1.80
2023-08-09T21:36:09.577Z,1.60
2023-08-09T21:38:36.778Z,1.50
2023-08-09T21:41:03.641Z,1.60
2023-08-09T21:43:30.542Z,1.90
2023-08-09T21:45:57.495Z,1.90
2023-08-09T21:48:24.618Z,2.50
2023-08-09T21:50:52.950Z,2.20
2023-08-09T21:53:23.099Z,2.20
2023-08-09T21:55:50.082Z,2.20
2023-08-09T21:58:16.892Z,2.10
2023-08-09T22:00:43.614Z,2.00
2023-08-09T22:03:10.617Z,1.80
2023-08-09T22:05:37.910Z,2.00
2023-08-09T22:08:06.046Z,2.10
2023-08-09T22:10:33.013Z,2.00
2023-08-09T22:13:00.177Z,2.40
2023-08-09T22:15:27.347Z,2.20
2023-08-09T22:17:54.800Z,2.70
2023-08-09T22:20:21.757Z,2.50
2023-08-09T22:22:49.049Z,2.60
2023-08-09T22:25:16.446Z,3.30
2023-08-09T22:27:43.331Z,3.00
2023-08-09T22:30:11.502Z,2.50
2023-08-09T22:32:39.904Z,2.70
2023-08-09T22:35:10.109Z,3.00
2023-08-09T22:37:36.943Z,3.20
2023-08-09T22:40:08.073Z,3.20
2023-08-09T22:42:34.950Z,3.40
2023-08-09T22:45:01.880Z,3.10
2023-08-09T22:47:28.649Z,3.30
2023-08-09T22:49:55.799Z,2.90
2023-08-09T22:52:22.543Z,2.90
2023-08-09T22:54:49.347Z,3.30
2023-08-09T22:57:16.183Z,3.00
2023-08-09T22:59:43.009Z,3.00
2023-08-09T23:02:09.854Z,2.90
2023-08-09T23:04:36.731Z,3.10
2023-08-09T23:07:03.575Z,3.30
2023-08-09T23:09:30.605Z,3.20
2023-08-09T23:11:57.835Z,3.90
2023-08-09T23:14:24.556Z,3.50
2023-08-09T23:16:51.299Z,4.10
2023-08-09T23:19:18.095Z,3.60
2023-08-09T23:21:45.267Z,4.00
2023-08-09T23:24:12.583Z,4.20
2023-08-09T23:26:43.006Z,4.20
2023-08-09T23:29:09.903Z,3.80
2023-08-09T23:31:36.955Z,4.10
2023-08-09T23:34:03.958Z,4.60
2023-08-09T23:36:30.933Z,4.20
2023-08-09T23:38:59.087Z,4.10
2023-08-09T23:41:26.081Z,4.90
2023-08-09T23:43:52.799Z,4.50
2023-08-09T23:46:19.682Z,4.70
2023-08-09T23:48:46.552Z,5.20
2023-08-09T23:51:13.279Z,5.20
2023-08-09T23:53:41.208Z,4.60
2023-08-09T23:56:08.716Z,4.70
2023-08-09T23:58:35.439Z,4.70
